Time;durP1;ratioP1;P1;durP2;ratioP2;P2;SDS_P1;SDS_P2;PMS_P1;PMS_P2;Temp;Humidity;BMP_temperature;BMP_pressure;BME280_temperature;BME280_humidity;BME280_pressure;Samples;Min_cycle;Max_cycle;Signal;HPM_P1;HPM_P2
2021/12/04 00:00:21;;;;;;;78.53;33.43;;;;;;;;;;5074550;28;20048;-69
2021/12/04 00:02:48;;;;;;;67.67;32.57;;;;;;;;;;5074282;28;20657;-69
2021/12/04 00:05:14;;;;;;;85.40;33.00;;;;;;;;;;5074611;28;20051;-69
2021/12/04 00:07:40;;;;;;;74.30;31.70;;;;;;;;;;5074185;28;20048;-69
2021/12/04 00:10:07;;;;;;;84.00;33.23;;;;;;;;;;5091750;28;20079;-69
2021/12/04 00:12:34;;;;;;;81.20;33.13;;;;;;;;;;5074094;28;20454;-70
2021/12/04 00:15:00;;;;;;;71.40;30.27;;;;;;;;;;5092457;28;20105;-69
2021/12/04 00:17:27;;;;;;;80.37;32.43;;;;;;;;;;5074107;28;20117;-69
2021/12/04 00:19:53;;;;;;;79.63;31.13;;;;;;;;;;5074031;28;20070;-69
2021/12/04 00:22:19;;;;;;;91.43;33.90;;;;;;;;;;5091252;28;20127;-69
2021/12/04 00:24:45;;;;;;;87.97;32.20;;;;;;;;;;5074104;28;20177;-69
2021/12/04 00:27:11;;;;;;;78.53;33.40;;;;;;;;;;5074230;28;20067;-69
2021/12/04 00:29:37;;;;;;;69.73;29.50;;;;;;;;;;5073639;28;20464;-69
2021/12/04 00:32:09;;;;;;;72.13;28.93;;;;;;;;;;5074234;28;20082;-69
2021/12/04 00:34:39;;;;;;;75.60;29.57;;;;;;;;;;5092144;28;20051;-69
2021/12/04 00:37:26;;;;;;;73.70;28.83;;;;;;;;;;5073029;28;20062;-69
2021/12/04 00:50:51;;;;;;;62.23;26.70;;;;;;;;;;5073886;28;20528;-69
2021/12/04 00:53:17;;;;;;;58.40;25.37;;;;;;;;;;5073542;28;20051;-71
2021/12/04 00:55:43;;;;;;;63.27;26.40;;;;;;;;;;5072473;28;20063;-69
2021/12/04 00:58:09;;;;;;;55.10;24.50;;;;;;;;;;5073475;28;20089;-69
2021/12/04 01:00:36;;;;;;;43.03;22.97;;;;;;;;;;5091399;28;20054;-69
2021/12/04 01:03:02;;;;;;;46.60;23.43;;;;;;;;;;5073958;28;20066;-70
2021/12/04 01:05:28;;;;;;;39.67;22.53;;;;;;;;;;5073310;28;20052;-69
2021/12/04 01:07:54;;;;;;;52.57;23.53;;;;;;;;;;5091568;28;20044;-69
2021/12/04 01:10:20;;;;;;;38.70;22.83;;;;;;;;;;5090465;28;20421;-69
2021/12/04 01:12:46;;;;;;;45.87;23.27;;;;;;;;;;5072443;28;20048;-69
2021/12/04 01:15:12;;;;;;;42.70;22.37;;;;;;;;;;5091084;28;20051;-69
2021/12/04 01:17:38;;;;;;;37.37;21.43;;;;;;;;;;5073084;28;20469;-70
2021/12/04 01:20:04;;;;;;;41.43;21.80;;;;;;;;;;5072972;28;20079;-70
2021/12/04 01:22:33;;;;;;;38.93;22.27;;;;;;;;;;5072958;28;20383;-69
2021/12/04 01:24:59;;;;;;;38.67;21.90;;;;;;;;;;5072892;28;20135;-69
2021/12/04 01:27:25;;;;;;;39.63;21.93;;;;;;;;;;5072342;28;20054;-69
2021/12/04 01:29:51;;;;;;;44.37;21.97;;;;;;;;;;5073036;28;20047;-70
2021/12/04 01:32:18;;;;;;;38.40;21.50;;;;;;;;;;5072926;28;20047;-69
2021/12/04 01:34:44;;;;;;;34.67;20.67;;;;;;;;;;5072982;28;20060;-69
2021/12/04 01:37:10;;;;;;;36.90;20.17;;;;;;;;;;5072501;28;20073;-69
2021/12/04 01:39:36;;;;;;;36.37;20.53;;;;;;;;;;5072339;28;20409;-69
2021/12/04 01:42:02;;;;;;;34.30;20.77;;;;;;;;;;5073054;28;20052;-69
2021/12/04 01:44:28;;;;;;;34.93;20.27;;;;;;;;;;5090652;28;20047;-69
2021/12/04 01:46:56;;;;;;;32.57;19.93;;;;;;;;;;5072474;28;20048;-69
2021/12/04 01:49:25;;;;;;;42.80;21.83;;;;;;;;;;5054513;28;20041;-69
2021/12/04 01:51:51;;;;;;;35.33;20.17;;;;;;;;;;5090068;28;20047;-70
2021/12/04 01:54:17;;;;;;;46.17;22.83;;;;;;;;;;5072854;28;20052;-69
2021/12/04 01:56:43;;;;;;;42.83;22.17;;;;;;;;;;5090239;28;20394;-69
2021/12/04 01:59:10;;;;;;;37.43;20.20;;;;;;;;;;5072101;28;20408;-69
2021/12/04 02:01:36;;;;;;;39.07;21.97;;;;;;;;;;5072385;28;20123;-69
2021/12/04 02:04:02;;;;;;;34.60;21.20;;;;;;;;;;5071465;28;20178;-69
2021/12/04 02:06:28;;;;;;;42.27;22.03;;;;;;;;;;5072166;28;20044;-69
2021/12/04 02:08:54;;;;;;;41.60;22.27;;;;;;;;;;5072311;28;20401;-69
2021/12/04 02:11:20;;;;;;;36.03;21.50;;;;;;;;;;5071375;28;20507;-70
2021/12/04 02:13:46;;;;;;;43.77;22.87;;;;;;;;;;5072122;28;20048;-70
2021/12/04 02:16:18;;;;;;;34.03;20.87;;;;;;;;;;5088909;28;20071;-70
2021/12/04 02:18:45;;;;;;;36.63;20.35;;;;;;;;;;5072101;28;20056;-69
2021/12/04 02:21:11;;;;;;;38.60;20.63;;;;;;;;;;5054926;28;20058;-69
2021/12/04 02:23:37;;;;;;;33.40;19.60;;;;;;;;;;5071726;28;20079;-69
2021/12/04 02:26:03;;;;;;;30.63;20.33;;;;;;;;;;5071866;28;20103;-69
2021/12/04 02:28:29;;;;;;;32.50;20.13;;;;;;;;;;5071215;28;20050;-69
2021/12/04 02:30:55;;;;;;;33.93;19.40;;;;;;;;;;5071837;28;20052;-69
2021/12/04 02:33:21;;;;;;;36.43;19.90;;;;;;;;;;5065990;28;20643;-69
2021/12/04 02:35:52;;;;;;;33.07;19.30;;;;;;;;;;5051543;28;20041;-69
2021/12/04 02:38:18;;;;;;;28.60;18.17;;;;;;;;;;5069381;28;20102;-69
2021/12/04 02:40:46;;;;;;;29.93;18.30;;;;;;;;;;5062533;28;20054;-70
2021/12/04 02:43:13;;;;;;;36.97;19.47;;;;;;;;;;5051326;28;20079;-69
2021/12/04 02:45:39;;;;;;;32.47;18.90;;;;;;;;;;5051372;28;20041;-69
2021/12/04 02:48:05;;;;;;;33.10;19.53;;;;;;;;;;5051756;28;20445;-70
2021/12/04 02:50:31;;;;;;;31.90;19.43;;;;;;;;;;5051276;28;20139;-69
2021/12/04 02:52:57;;;;;;;35.77;19.53;;;;;;;;;;5051631;28;20473;-69
2021/12/04 02:55:23;;;;;;;41.27;21.00;;;;;;;;;;5051478;28;20520;-70
2021/12/04 02:57:50;;;;;;;29.90;17.47;;;;;;;;;;5034658;28;20045;-69
2021/12/04 03:00:17;;;;;;;31.47;18.33;;;;;;;;;;5051420;28;20704;-69
2021/12/04 03:02:43;;;;;;;36.67;18.70;;;;;;;;;;5054368;28;20036;-69
2021/12/04 03:05:11;;;;;;;32.23;17.77;;;;;;;;;;5070906;28;20151;-69
2021/12/04 03:07:37;;;;;;;30.40;18.53;;;;;;;;;;5071443;28;20051;-70
2021/12/04 03:10:04;;;;;;;30.13;18.20;;;;;;;;;;5053875;28;20155;-70
2021/12/04 03:12:30;;;;;;;31.77;18.57;;;;;;;;;;5070997;28;20036;-69
2021/12/04 03:14:56;;;;;;;36.57;19.73;;;;;;;;;;5071078;28;20413;-69
2021/12/04 03:17:23;;;;;;;29.93;18.03;;;;;;;;;;5088986;28;20402;-70
2021/12/04 03:19:51;;;;;;;30.83;18.27;;;;;;;;;;5053617;28;20040;-69
2021/12/04 03:22:18;;;;;;;29.07;17.43;;;;;;;;;;5070800;28;20098;-70
2021/12/04 03:24:44;;;;;;;30.53;17.83;;;;;;;;;;5088812;28;20048;-69
2021/12/04 03:27:12;;;;;;;29.93;16.97;;;;;;;;;;5071019;28;20506;-70
2021/12/04 03:29:41;;;;;;;30.23;17.87;;;;;;;;;;5070726;28;20084;-69
2021/12/04 03:32:33;;;;;;;36.93;18.33;;;;;;;;;;5070610;28;20268;-69
2021/12/04 03:43:10;;;;;;;32.17;17.23;;;;;;;;;;5088462;28;20052;-69
2021/12/04 03:45:39;;;;;;;28.77;16.77;;;;;;;;;;5071041;28;20104;-69
2021/12/04 03:48:08;;;;;;;29.10;17.03;;;;;;;;;;5070938;28;20044;-69
2021/12/04 03:50:35;;;;;;;30.23;16.90;;;;;;;;;;5088933;28;20048;-69
2021/12/04 03:53:01;;;;;;;29.13;16.33;;;;;;;;;;5070312;28;20044;-69
2021/12/04 03:55:28;;;;;;;27.33;16.27;;;;;;;;;;5089008;28;20051;-69
2021/12/04 03:57:54;;;;;;;28.97;15.80;;;;;;;;;;5070617;28;20040;-70
2021/12/04 04:00:20;;;;;;;32.57;16.40;;;;;;;;;;5070990;28;20079;-70
2021/12/04 04:02:46;;;;;;;26.70;16.50;;;;;;;;;;5085878;28;20412;-69
2021/12/04 04:05:13;;;;;;;28.40;16.10;;;;;;;;;;5034241;28;20127;-70
2021/12/04 04:07:39;;;;;;;35.40;18.17;;;;;;;;;;5050170;28;20048;-70
2021/12/04 04:10:06;;;;;;;32.23;17.87;;;;;;;;;;5077424;28;20102;-70
2021/12/04 04:12:32;;;;;;;29.03;15.80;;;;;;;;;;5070427;28;20079;-70
2021/12/04 04:14:58;;;;;;;36.90;18.17;;;;;;;;;;5070215;28;20056;-70
2021/12/04 04:17:27;;;;;;;32.07;16.93;;;;;;;;;;5070288;28;20044;-70
2021/12/04 04:19:53;;;;;;;32.17;17.07;;;;;;;;;;5069826;28;20128;-69
2021/12/04 04:22:19;;;;;;;29.57;16.47;;;;;;;;;;5053933;28;20131;-69
2021/12/04 04:24:45;;;;;;;27.83;16.47;;;;;;;;;;5088336;28;20044;-70
2021/12/04 04:27:11;;;;;;;25.43;16.47;;;;;;;;;;5088306;28;20131;-69
2021/12/04 04:29:37;;;;;;;27.37;16.57;;;;;;;;;;5088432;28;20127;-69
2021/12/04 04:32:03;;;;;;;30.10;17.03;;;;;;;;;;5074525;28;20088;-69
2021/12/04 04:34:35;;;;;;;27.17;15.40;;;;;;;;;;5091899;28;20052;-69
2021/12/04 05:12:19;;;;;;;27.80;15.87;;;;;;;;;;5091344;28;20052;-69
2021/12/04 05:14:49;;;;;;;32.33;16.30;;;;;;;;;;5072502;28;20059;-70
2021/12/04 05:17:28;;;;;;;30.57;15.53;;;;;;;;;;5091463;28;20505;-69
2021/12/04 05:19:55;;;;;;;31.47;16.90;;;;;;;;;;5073119;28;20044;-69
2021/12/04 05:22:22;;;;;;;36.70;19.20;;;;;;;;;;5073044;28;20055;-69
2021/12/04 05:24:48;;;;;;;30.23;17.07;;;;;;;;;;5072933;28;20161;-69
2021/12/04 05:27:15;;;;;;;33.20;16.53;;;;;;;;;;5072773;28;20044;-70
2021/12/04 05:29:41;;;;;;;29.47;16.87;;;;;;;;;;5091278;28;20456;-70
2021/12/04 05:32:07;;;;;;;35.43;18.60;;;;;;;;;;5090745;28;20074;-69
2021/12/04 05:34:34;;;;;;;32.67;17.57;;;;;;;;;;5091096;28;20493;-69
2021/12/04 05:37:00;;;;;;;32.60;18.33;;;;;;;;;;5072895;28;20051;-69
2021/12/04 05:39:26;;;;;;;31.93;17.87;;;;;;;;;;5071891;28;20067;-69
2021/12/04 05:41:53;;;;;;;34.40;17.47;;;;;;;;;;5072450;28;20051;-69
2021/12/04 05:44:23;;;;;;;37.33;18.87;;;;;;;;;;5090887;28;20044;-69
2021/12/04 05:47:02;;;;;;;38.53;18.77;;;;;;;;;;5072845;28;20083;-69
2021/12/04 05:50:21;;;;;;;46.87;19.70;;;;;;;;;;5072398;28;20517;-69
2021/12/04 05:52:23;;;;;;;43.70;18.77;;;;;;;;;;5058495;28;20122;-69
2021/12/04 05:55:08;;;;;;;44.73;20.53;;;;;;;;;;5072052;28;20055;-69
2021/12/04 05:57:34;;;;;;;48.57;21.33;;;;;;;;;;5072251;28;20130;-69
2021/12/04 06:00:00;;;;;;;49.77;21.50;;;;;;;;;;5071538;28;20055;-70
2021/12/04 06:02:26;;;;;;;44.90;19.30;;;;;;;;;;5057713;28;20047;-70
2021/12/04 06:04:52;;;;;;;48.43;20.97;;;;;;;;;;5072595;28;20048;-70
2021/12/04 06:07:18;;;;;;;51.90;22.27;;;;;;;;;;5072558;28;20413;-70
2021/12/04 06:09:44;;;;;;;56.07;22.17;;;;;;;;;;5050572;28;20072;-70
2021/12/04 06:12:10;;;;;;;53.80;23.43;;;;;;;;;;5051991;28;20135;-70
2021/12/04 06:14:36;;;;;;;47.20;21.30;;;;;;;;;;5065300;28;20863;-69
2021/12/04 06:17:02;;;;;;;55.30;22.00;;;;;;;;;;5064023;28;20055;-69
2021/12/04 06:24:59;;;;;;;61.47;23.77;;;;;;;;;;5051876;28;20135;-70
2021/12/04 06:27:25;;;;;;;54.53;22.07;;;;;;;;;;5054281;28;20051;-70
2021/12/04 06:29:51;;;;;;;62.07;22.87;;;;;;;;;;5061283;28;20040;-70
2021/12/04 06:32:19;;;;;;;65.03;24.33;;;;;;;;;;5079922;28;20063;-69
2021/12/04 06:34:45;;;;;;;69.37;25.37;;;;;;;;;;5060977;28;20084;-69
2021/12/04 06:37:11;;;;;;;70.13;24.23;;;;;;;;;;5059251;28;20488;-70
2021/12/04 06:39:37;;;;;;;64.10;23.60;;;;;;;;;;5060628;28;20048;-70
2021/12/04 06:42:03;;;;;;;63.33;24.17;;;;;;;;;;5061053;28;20115;-69
2021/12/04 06:44:29;;;;;;;58.23;23.50;;;;;;;;;;5076789;28;20060;-70
2021/12/04 06:46:55;;;;;;;71.63;22.87;;;;;;;;;;5058611;28;20200;-70
2021/12/04 06:49:26;;;;;;;56.10;21.13;;;;;;;;;;5057496;28;20036;-69
2021/12/04 06:51:56;;;;;;;51.43;21.63;;;;;;;;;;5061543;28;20423;-70
2021/12/04 06:54:26;;;;;;;64.07;21.27;;;;;;;;;;5076312;28;20115;-70
2021/12/04 06:56:52;;;;;;;46.67;19.20;;;;;;;;;;5061769;28;20063;-69
2021/12/04 06:59:26;;;;;;;45.27;18.13;;;;;;;;;;5060207;28;20055;-69
2021/12/04 07:01:52;;;;;;;53.63;18.90;;;;;;;;;;5043620;28;20047;-70
2021/12/04 07:04:19;;;;;;;44.03;17.37;;;;;;;;;;5061108;28;20040;-70
2021/12/04 07:06:47;;;;;;;37.60;16.67;;;;;;;;;;5058990;28;20048;-70
2021/12/04 07:09:13;;;;;;;39.50;17.60;;;;;;;;;;5077460;28;20055;-69
2021/12/04 07:11:39;;;;;;;38.33;16.63;;;;;;;;;;5060523;28;20048;-69
2021/12/04 07:14:05;;;;;;;45.60;17.53;;;;;;;;;;5058433;28;20086;-70
2021/12/04 07:16:32;;;;;;;40.60;17.27;;;;;;;;;;5059221;28;20131;-71
2021/12/04 07:18:58;;;;;;;56.93;19.07;;;;;;;;;;5059932;28;20087;-70
2021/12/04 07:21:24;;;;;;;58.10;19.07;;;;;;;;;;5059962;28;20083;-71
2021/12/04 07:23:51;;;;;;;48.70;18.33;;;;;;;;;;5060320;28;20048;-70
2021/12/04 07:26:17;;;;;;;51.80;19.87;;;;;;;;;;5060308;28;20101;-71
2021/12/04 07:28:43;;;;;;;50.47;19.03;;;;;;;;;;5059010;28;20033;-70
2021/12/04 07:31:10;;;;;;;53.10;19.30;;;;;;;;;;5059890;28;20040;-71
2021/12/04 07:33:36;;;;;;;63.53;22.30;;;;;;;;;;5060429;28;20048;-71
2021/12/04 07:36:02;;;;;;;63.90;23.17;;;;;;;;;;5057640;28;20047;-70
2021/12/04 07:38:29;;;;;;;72.87;22.70;;;;;;;;;;5058842;28;20454;-70
2021/12/04 07:40:55;;;;;;;69.60;22.97;;;;;;;;;;5060438;28;20052;-70
2021/12/04 07:43:21;;;;;;;63.67;22.50;;;;;;;;;;5060439;28;20073;-71
2021/12/04 07:45:47;;;;;;;49.80;20.53;;;;;;;;;;5059494;28;20051;-69
2021/12/04 07:48:13;;;;;;;65.50;22.20;;;;;;;;;;5078192;28;20075;-69
2021/12/04 07:50:39;;;;;;;68.03;24.30;;;;;;;;;;5060399;28;20091;-68
2021/12/04 07:53:06;;;;;;;66.63;22.90;;;;;;;;;;5069720;28;20048;-69
2021/12/04 07:55:32;;;;;;;61.80;24.23;;;;;;;;;;5079323;28;20044;-69
2021/12/04 07:57:59;;;;;;;61.57;23.47;;;;;;;;;;5055013;28;20060;-69
2021/12/04 08:00:25;;;;;;;73.93;26.77;;;;;;;;;;5068077;28;20385;-69
2021/12/04 08:02:52;;;;;;;85.50;26.93;;;;;;;;;;5050283;28;20044;-69
2021/12/04 08:05:19;;;;;;;93.10;27.93;;;;;;;;;;5052532;28;20509;-69
2021/12/04 08:07:45;;;;;;;79.63;27.30;;;;;;;;;;5065573;28;20045;-69
2021/12/04 08:10:13;;;;;;;103.57;30.80;;;;;;;;;;5074060;28;20058;-69
2021/12/04 08:12:39;;;;;;;86.00;28.07;;;;;;;;;;5074682;28;20416;-69
2021/12/04 08:15:06;;;;;;;73.83;26.17;;;;;;;;;;5079438;28;20063;-69
2021/12/04 08:17:32;;;;;;;93.63;29.17;;;;;;;;;;5070376;28;20541;-69
2021/12/04 08:19:58;;;;;;;81.03;26.80;;;;;;;;;;5071032;28;20051;-69
2021/12/04 08:22:24;;;;;;;122.70;32.57;;;;;;;;;;5071847;28;20529;-68
2021/12/04 08:24:50;;;;;;;103.10;30.50;;;;;;;;;;5070315;28;20056;-69
2021/12/04 08:27:17;;;;;;;96.90;30.63;;;;;;;;;;5067094;28;20049;-69
2021/12/04 08:29:43;;;;;;;100.23;31.10;;;;;;;;;;5062776;28;20365;-70
2021/12/04 08:32:10;;;;;;;92.30;30.67;;;;;;;;;;5081180;28;20486;-70
2021/12/04 08:34:36;;;;;;;111.97;32.50;;;;;;;;;;5078328;28;20044;-69
2021/12/04 08:37:03;;;;;;;99.37;30.23;;;;;;;;;;5062475;28;20093;-70
2021/12/04 08:39:30;;;;;;;96.40;30.77;;;;;;;;;;5061227;28;20044;-69
2021/12/04 08:41:56;;;;;;;109.73;31.83;;;;;;;;;;5081771;28;20040;-69
2021/12/04 08:44:22;;;;;;;113.97;31.43;;;;;;;;;;5062020;28;20037;-69
2021/12/04 08:46:48;;;;;;;122.07;34.37;;;;;;;;;;5079289;28;20494;-69
2021/12/04 08:49:14;;;;;;;117.53;32.57;;;;;;;;;;5061427;28;20052;-70
2021/12/04 08:51:42;;;;;;;139.70;35.47;;;;;;;;;;5056620;28;20478;-69
2021/12/04 08:54:08;;;;;;;132.17;34.27;;;;;;;;;;5070687;28;20060;-69
2021/12/04 08:56:34;;;;;;;144.57;34.00;;;;;;;;;;5072443;28;20044;-70
2021/12/04 08:59:01;;;;;;;107.77;31.90;;;;;;;;;;5070304;28;20170;-70
2021/12/04 09:01:30;;;;;;;131.23;33.30;;;;;;;;;;5075172;28;20205;-70
2021/12/04 09:04:07;;;;;;;125.70;33.67;;;;;;;;;;5059884;28;20874;-70
2021/12/04 09:06:33;;;;;;;103.63;31.80;;;;;;;;;;5052679;28;20458;-69
2021/12/04 09:08:59;;;;;;;106.73;31.80;;;;;;;;;;5070864;28;20541;-70
2021/12/04 09:11:27;;;;;;;111.27;34.03;;;;;;;;;;5065505;28;20059;-69
2021/12/04 09:13:54;;;;;;;115.37;32.50;;;;;;;;;;5056721;28;20391;-69
2021/12/04 09:16:21;;;;;;;108.17;32.37;;;;;;;;;;5053953;28;20040;-69
2021/12/04 09:18:47;;;;;;;120.43;34.67;;;;;;;;;;5086341;28;20109;-69
2021/12/04 09:21:13;;;;;;;126.10;32.70;;;;;;;;;;5066584;28;20052;-69
2021/12/04 09:23:44;;;;;;;104.40;30.93;;;;;;;;;;5051681;28;20100;-69
2021/12/04 09:26:15;;;;;;;101.97;30.67;;;;;;;;;;5055587;28;20406;-69
2021/12/04 09:28:50;;;;;;;86.87;28.23;;;;;;;;;;5062706;28;20049;-69
2021/12/04 09:34:51;;;;;;;124.87;32.57;;;;;;;;;;5070409;28;20064;-69
2021/12/04 10:04:32;;;;;;;116.90;32.53;;;;;;;;;;5077132;28;20494;-70
2021/12/04 10:13:04;;;;;;;119.47;34.27;;;;;;;;;;5061243;28;20044;-69
2021/12/04 10:34:16;;;;;;;108.17;30.37;;;;;;;;;;5077541;28;20499;-70
2021/12/04 10:36:42;;;;;;;85.07;27.37;;;;;;;;;;5057472;28;20048;-70
2021/12/04 10:39:10;;;;;;;92.37;29.30;;;;;;;;;;5054457;28;20048;-68
2021/12/04 10:41:39;;;;;;;83.40;27.87;;;;;;;;;;5055709;28;20049;-68
2021/12/04 10:44:14;;;;;;;86.50;29.80;;;;;;;;;;5057391;28;20044;-69
2021/12/04 10:46:40;;;;;;;83.90;28.60;;;;;;;;;;5055791;28;20049;-69
2021/12/04 10:49:15;;;;;;;92.53;30.57;;;;;;;;;;5049831;28;20621;-70
2021/12/04 10:51:47;;;;;;;88.87;28.90;;;;;;;;;;5055892;28;20059;-71
2021/12/04 10:54:23;;;;;;;75.03;27.93;;;;;;;;;;5055657;28;20048;-69
2021/12/04 10:57:28;;;;;;;75.23;27.27;;;;;;;;;;5055133;28;20139;-70
2021/12/04 11:00:00;;;;;;;87.87;27.43;;;;;;;;;;5055778;28;20071;-69
2021/12/04 11:02:46;;;;;;;84.63;27.53;;;;;;;;;;5053654;28;20049;-69
2021/12/04 11:25:16;;;;;;;92.90;31.20;;;;;;;;;;5056417;28;20049;-70
2021/12/04 11:28:19;;;;;;;90.27;30.27;;;;;;;;;;5055542;28;20051;-70
2021/12/04 11:42:35;;;;;;;122.33;33.30;;;;;;;;;;4970881;28;20050;-69
2021/12/04 11:45:02;;;;;;;104.97;31.63;;;;;;;;;;5045493;28;20128;-69
2021/12/04 11:47:35;;;;;;;134.87;33.77;;;;;;;;;;5066081;28;20076;-69
2021/12/04 11:50:03;;;;;;;134.45;34.10;;;;;;;;;;5064117;28;20383;-68
2021/12/04 11:52:29;;;;;;;142.07;35.20;;;;;;;;;;5063599;28;20056;-69
2021/12/04 11:55:01;;;;;;;119.07;32.43;;;;;;;;;;5048647;28;20095;-69
2021/12/04 11:57:28;;;;;;;134.83;33.73;;;;;;;;;;5047091;28;20048;-69
2021/12/04 11:59:54;;;;;;;154.57;37.87;;;;;;;;;;5046908;28;20812;-69
2021/12/04 12:02:22;;;;;;;133.07;34.90;;;;;;;;;;5053250;28;20094;-69
2021/12/04 12:04:52;;;;;;;138.23;40.83;;;;;;;;;;5067838;28;20075;-69
2021/12/04 12:07:23;;;;;;;131.20;37.60;;;;;;;;;;5048572;28;20106;-69
2021/12/04 12:10:00;;;;;;;123.37;35.10;;;;;;;;;;5066584;28;20049;-69
2021/12/04 12:12:32;;;;;;;117.00;34.37;;;;;;;;;;5065406;28;20044;-69
2021/12/04 12:15:03;;;;;;;109.27;34.70;;;;;;;;;;5070006;28;20058;-69
2021/12/04 12:17:31;;;;;;;109.23;31.83;;;;;;;;;;5069294;28;20052;-69
2021/12/04 12:19:57;;;;;;;127.37;38.33;;;;;;;;;;5087654;28;20044;-69
2021/12/04 12:22:38;;;;;;;123.40;36.70;;;;;;;;;;5070017;28;20055;-69
2021/12/04 12:25:33;;;;;;;113.67;35.97;;;;;;;;;;5070017;28;20052;-69
2021/12/04 12:33:42;;;;;;;111.30;36.13;;;;;;;;;;5054639;28;20549;-69
2021/12/04 12:36:10;;;;;;;125.73;38.67;;;;;;;;;;5049984;28;20087;-69
2021/12/04 12:38:41;;;;;;;128.10;39.90;;;;;;;;;;5068152;28;20431;-69
2021/12/04 12:41:16;;;;;;;113.27;38.37;;;;;;;;;;5049962;28;20113;-69
2021/12/04 12:43:44;;;;;;;127.77;40.70;;;;;;;;;;5049749;28;20052;-69
2021/12/04 12:46:11;;;;;;;133.97;41.87;;;;;;;;;;5049537;28;20051;-69
2021/12/04 12:48:46;;;;;;;127.33;41.00;;;;;;;;;;5049834;28;20052;-69
2021/12/04 12:51:14;;;;;;;109.57;41.03;;;;;;;;;;5050381;28;20569;-69
2021/12/04 12:53:45;;;;;;;125.63;42.73;;;;;;;;;;5037063;28;20113;-69
2021/12/04 12:56:13;;;;;;;130.67;41.67;;;;;;;;;;5071459;28;20144;-69
2021/12/04 13:12:48;;;;;;;148.73;47.40;;;;;;;;;;5070975;28;20049;-69
2021/12/04 13:15:16;;;;;;;162.27;48.80;;;;;;;;;;5082230;28;20060;-69
2021/12/04 13:17:42;;;;;;;171.97;52.23;;;;;;;;;;5091007;28;20048;-69
2021/12/04 13:20:09;;;;;;;176.30;56.80;;;;;;;;;;5090909;28;20051;-69
2021/12/04 13:22:35;;;;;;;164.57;50.63;;;;;;;;;;5072698;28;20052;-69
2021/12/04 13:25:04;;;;;;;159.43;50.63;;;;;;;;;;5073110;28;20532;-68
2021/12/04 13:29:57;;;;;;;158.40;53.07;;;;;;;;;;5072622;28;20509;-68
2021/12/04 13:32:32;;;;;;;157.07;51.07;;;;;;;;;;5071993;28;20040;-68
2021/12/04 13:35:24;;;;;;;152.80;51.40;;;;;;;;;;5090679;28;20137;-69
2021/12/04 13:37:53;;;;;;;154.30;54.33;;;;;;;;;;5069060;28;20901;-69
2021/12/04 13:40:20;;;;;;;179.33;55.60;;;;;;;;;;5072833;28;20055;-68
2021/12/04 13:42:47;;;;;;;172.90;53.17;;;;;;;;;;5055719;28;20052;-69
2021/12/04 13:45:15;;;;;;;160.20;51.07;;;;;;;;;;5090600;28;20466;-68
2021/12/04 13:47:41;;;;;;;181.37;51.57;;;;;;;;;;5072604;28;20047;-69
2021/12/04 13:50:22;;;;;;;149.20;48.33;;;;;;;;;;5090772;28;20040;-69
2021/12/04 13:52:49;;;;;;;153.13;47.83;;;;;;;;;;5072571;28;20051;-69
2021/12/04 13:55:18;;;;;;;226.83;55.87;;;;;;;;;;5090352;28;20521;-68
2021/12/04 13:57:44;;;;;;;137.20;49.43;;;;;;;;;;5071945;28;20054;-68
2021/12/04 14:00:11;;;;;;;155.07;50.73;;;;;;;;;;5072728;28;20052;-69
2021/12/04 14:02:37;;;;;;;139.90;48.27;;;;;;;;;;5071582;28;20055;-68
2021/12/04 14:05:06;;;;;;;167.83;51.90;;;;;;;;;;5072301;28;20044;-68
2021/12/04 14:07:35;;;;;;;140.97;46.30;;;;;;;;;;5090341;28;20044;-69
2021/12/04 14:10:13;;;;;;;156.03;51.10;;;;;;;;;;5070479;28;20056;-69
2021/12/04 14:12:39;;;;;;;145.30;50.47;;;;;;;;;;5072494;28;20461;-68
2021/12/04 14:15:10;;;;;;;141.60;50.73;;;;;;;;;;5078753;28;20524;-68
2021/12/04 14:17:36;;;;;;;144.50;50.77;;;;;;;;;;5089646;28;20212;-68
2021/12/04 14:20:03;;;;;;;124.53;47.50;;;;;;;;;;5071915;28;20044;-68
2021/12/04 14:22:29;;;;;;;145.23;47.63;;;;;;;;;;5070793;28;20402;-70
2021/12/04 14:24:59;;;;;;;141.00;49.40;;;;;;;;;;5074589;28;20048;-68
2021/12/04 14:27:36;;;;;;;138.53;48.57;;;;;;;;;;5061653;28;20052;-68
2021/12/04 14:30:05;;;;;;;142.70;48.30;;;;;;;;;;5082493;28;20728;-68
2021/12/04 14:32:34;;;;;;;139.57;48.73;;;;;;;;;;5069501;28;20082;-69
2021/12/04 14:35:14;;;;;;;136.90;49.03;;;;;;;;;;5067869;28;20040;-68
2021/12/04 14:37:41;;;;;;;149.60;48.60;;;;;;;;;;5062248;28;20059;-69
2021/12/04 14:40:12;;;;;;;142.77;49.30;;;;;;;;;;5075487;28;20118;-68
2021/12/04 14:42:38;;;;;;;196.57;53.27;;;;;;;;;;5078549;28;20782;-69
2021/12/04 14:45:08;;;;;;;173.63;52.47;;;;;;;;;;5056896;28;20048;-69
2021/12/04 14:47:37;;;;;;;174.70;52.30;;;;;;;;;;5070118;28;20059;-68
2021/12/04 14:50:07;;;;;;;154.47;51.13;;;;;;;;;;5060820;28;20045;-69
2021/12/04 14:52:33;;;;;;;181.00;52.33;;;;;;;;;;5060289;28;20123;-69
2021/12/04 14:55:11;;;;;;;162.13;50.93;;;;;;;;;;5059055;28;20082;-68
2021/12/04 14:57:40;;;;;;;160.47;51.37;;;;;;;;;;5071791;28;20055;-69
2021/12/04 15:00:08;;;;;;;188.07;54.43;;;;;;;;;;5068787;28;20075;-69
2021/12/04 15:02:35;;;;;;;156.37;50.30;;;;;;;;;;5080351;28;20456;-69
2021/12/04 15:05:03;;;;;;;176.33;52.83;;;;;;;;;;5070106;28;20490;-69
2021/12/04 15:07:32;;;;;;;155.40;55.37;;;;;;;;;;5088375;28;20455;-68
2021/12/04 15:09:58;;;;;;;179.87;56.30;;;;;;;;;;5071461;28;20444;-68
2021/12/04 15:12:42;;;;;;;148.80;51.27;;;;;;;;;;5089116;28;20178;-69
2021/12/04 15:15:08;;;;;;;;;;;;;;;;;;5067108;28;20487;-69
2021/12/04 15:17:40;;;;;;;160.37;50.40;;;;;;;;;;5067217;28;19920;-68
2021/12/04 15:20:15;;;;;;;175.13;53.43;;;;;;;;;;5067942;28;20577;-68
2021/12/04 15:22:42;;;;;;;134.33;50.07;;;;;;;;;;5054857;28;20053;-68
2021/12/04 15:25:13;;;;;;;125.73;47.17;;;;;;;;;;5054917;28;20061;-68
2021/12/04 15:27:39;;;;;;;134.70;49.83;;;;;;;;;;5040007;28;20052;-69
2021/12/04 15:30:06;;;;;;;155.13;51.50;;;;;;;;;;5057355;28;20453;-69
2021/12/04 15:32:34;;;;;;;146.90;51.17;;;;;;;;;;5058147;28;20052;-69
2021/12/04 15:35:06;;;;;;;136.77;47.50;;;;;;;;;;5056147;28;20055;-70
2021/12/04 15:37:40;;;;;;;147.90;50.47;;;;;;;;;;5055175;28;20053;-69
2021/12/04 15:40:10;;;;;;;152.38;49.10;;;;;;;;;;5056975;28;20382;-69
2021/12/04 15:42:55;;;;;;;137.50;48.87;;;;;;;;;;5057173;28;20098;-69
2021/12/04 15:45:44;;;;;;;155.53;50.07;;;;;;;;;;5057590;28;20051;-68
2021/12/04 15:48:51;;;;;;;164.43;52.20;;;;;;;;;;5056604;28;20116;-69
2021/12/04 15:53:55;;;;;;;166.30;53.80;;;;;;;;;;5057295;28;20056;-69
2021/12/04 15:56:37;;;;;;;161.00;53.80;;;;;;;;;;5057959;28;20040;-68
2021/12/04 15:59:05;;;;;;;131.73;47.53;;;;;;;;;;5056400;28;20437;-69
2021/12/04 16:01:31;;;;;;;170.70;53.77;;;;;;;;;;5055256;28;20045;-69
2021/12/04 16:03:59;;;;;;;165.27;51.87;;;;;;;;;;5054788;28;20444;-69
2021/12/04 16:06:36;;;;;;;157.97;51.70;;;;;;;;;;5056878;28;20085;-69
2021/12/04 16:09:02;;;;;;;130.63;45.00;;;;;;;;;;5056271;28;20045;-69
2021/12/04 16:11:34;;;;;;;156.70;54.17;;;;;;;;;;5054794;28;20049;-69
2021/12/04 16:14:03;;;;;;;137.30;50.20;;;;;;;;;;5052679;28;20388;-69
2021/12/04 16:16:32;;;;;;;126.07;45.87;;;;;;;;;;5050360;28;20429;-69
2021/12/04 16:18:58;;;;;;;169.30;50.47;;;;;;;;;;5058559;28;20047;-69
2021/12/04 16:21:25;;;;;;;130.70;44.73;;;;;;;;;;5066174;28;20059;-70
2021/12/04 16:23:53;;;;;;;130.80;48.23;;;;;;;;;;5061321;28;20077;-69
2021/12/04 16:26:22;;;;;;;140.33;47.77;;;;;;;;;;5078372;28;20048;-69
2021/12/04 16:40:12;;;;;;;86.93;36.73;;;;;;;;;;5092225;28;20080;-69
2021/12/04 16:42:39;;;;;;;91.87;37.80;;;;;;;;;;5056234;28;20409;-69
2021/12/04 16:45:06;;;;;;;94.80;37.53;;;;;;;;;;5072814;28;20048;-69
2021/12/04 16:47:38;;;;;;;105.37;39.23;;;;;;;;;;5072731;28;20087;-68
2021/12/04 16:50:04;;;;;;;96.83;39.03;;;;;;;;;;5072028;28;20051;-68
2021/12/04 16:55:37;;;;;;;121.23;38.87;;;;;;;;;;5073555;28;20040;-69
2021/12/04 16:58:12;;;;;;;102.70;39.43;;;;;;;;;;5073733;28;20051;-69
2021/12/04 17:00:38;;;;;;;99.87;37.90;;;;;;;;;;5073235;28;20391;-68
2021/12/04 17:03:04;;;;;;;81.77;35.07;;;;;;;;;;5064649;28;20577;-68
2021/12/04 17:05:33;;;;;;;54.23;25.80;;;;;;;;;;5062075;28;20040;-69
2021/12/04 17:07:59;;;;;;;68.27;29.53;;;;;;;;;;5079151;28;20056;-69
2021/12/04 17:10:26;;;;;;;77.17;30.30;;;;;;;;;;5062196;28;20835;-68
2021/12/04 17:12:52;;;;;;;65.50;29.07;;;;;;;;;;5064715;28;20494;-68
2021/12/04 17:15:18;;;;;;;95.20;33.63;;;;;;;;;;5084371;28;20112;-69
2021/12/04 17:17:45;;;;;;;63.37;29.77;;;;;;;;;;5066415;28;20550;-69
2021/12/04 17:20:13;;;;;;;56.90;26.37;;;;;;;;;;5081040;28;20052;-69
2021/12/04 17:22:39;;;;;;;73.67;35.10;;;;;;;;;;5083095;28;20051;-69
2021/12/04 17:25:06;;;;;;;69.27;28.60;;;;;;;;;;5059579;28;20052;-68
2021/12/04 17:27:32;;;;;;;66.37;29.80;;;;;;;;;;5062521;28;20748;-68